createdAt,value
2023-01-18T00:00:10.653Z,10.73
2023-01-18T00:03:13.383Z,9.63
2023-01-18T00:06:15.430Z,12.00
2023-01-18T00:09:17.260Z,8.32
2023-01-18T00:12:19.836Z,11.80
2023-01-18T00:15:21.796Z,10.45
2023-01-18T00:18:23.665Z,12.15
2023-01-18T00:21:27.249Z,11.82
2023-01-18T00:24:31.300Z,10.13
2023-01-18T00:27:33.190Z,10.38
2023-01-18T00:30:34.997Z,8.07
2023-01-18T00:33:37.258Z,9.48
2023-01-18T00:36:39.145Z,10.57
2023-01-18T00:39:41.006Z,8.73
2023-01-18T00:42:42.848Z,10.05
2023-01-18T00:45:45.162Z,11.93
2023-01-18T00:48:47.173Z,10.20
2023-01-18T00:51:49.033Z,9.63
2023-01-18T00:54:50.954Z,7.72
2023-01-18T00:57:52.927Z,10.30
2023-01-18T01:00:54.834Z,8.82
2023-01-18T01:03:56.841Z,9.40
2023-01-18T01:06:58.732Z,8.95
2023-01-18T01:10:00.582Z,10.38
2023-01-18T01:13:02.805Z,11.45
2023-01-18T01:16:10.302Z,9.98
2023-01-18T01:19:12.191Z,8.40
2023-01-18T01:22:14.044Z,10.05
2023-01-18T01:25:16.005Z,11.07
2023-01-18T01:28:17.855Z,12.25
2023-01-18T01:31:20.720Z,11.95
2023-01-18T01:34:22.705Z,11.60
2023-01-18T01:37:24.583Z,10.63
2023-01-18T01:40:26.475Z,11.18
2023-01-18T01:43:37.465Z,9.75
2023-01-18T01:46:55.892Z,11.23
2023-01-18T01:50:02.961Z,9.85
2023-01-18T01:53:05.885Z,12.18
2023-01-18T01:56:08.819Z,7.88
2023-01-18T01:59:11.300Z,9.63
2023-01-18T02:02:13.523Z,9.82
2023-01-18T02:05:17.893Z,10.88
2023-01-18T02:08:20.005Z,9.13
2023-01-18T02:11:21.829Z,10.02
2023-01-18T02:14:27.325Z,11.95
2023-01-18T02:17:32.026Z,10.13
2023-01-18T02:21:16.637Z,10.55
2023-01-18T02:24:48.543Z,11.35
2023-01-18T02:28:14.563Z,10.82
2023-01-18T02:31:30.019Z,7.97
2023-01-18T02:34:48.297Z,12.18
2023-01-18T02:38:13.176Z,11.90
2023-01-18T02:41:44.074Z,10.50
2023-01-18T02:44:47.133Z,11.80
2023-01-18T02:47:49.625Z,10.18
2023-01-18T02:50:52.136Z,9.68
2023-01-18T02:53:54.032Z,8.85
2023-01-18T02:56:59.233Z,12.18
2023-01-18T03:00:03.224Z,12.13
2023-01-18T03:03:07.182Z,12.45
2023-01-18T03:06:09.188Z,12.23
2023-01-18T03:09:11.832Z,14.48
2023-01-18T03:12:24.020Z,10.57
2023-01-18T03:15:58.690Z,11.88
2023-01-18T03:19:06.082Z,14.85
2023-01-18T03:22:07.914Z,11.30
2023-01-18T03:25:13.474Z,12.45
2023-01-18T03:28:23.822Z,13.20
2023-01-18T03:31:39.165Z,9.93
2023-01-18T03:35:15.933Z,9.77
2023-01-18T03:38:18.735Z,10.05
2023-01-18T03:41:22.633Z,11.93
2023-01-18T03:44:37.247Z,9.10
2023-01-18T03:47:39.746Z,9.40
2023-01-18T03:50:52.219Z,11.02
2023-01-18T03:53:57.090Z,10.70
2023-01-18T03:57:12.786Z,11.30
2023-01-18T04:00:15.177Z,12.45
2023-01-18T04:03:16.971Z,13.95
2023-01-18T04:06:19.356Z,11.13
2023-01-18T04:09:21.205Z,8.63
2023-01-18T04:12:23.089Z,8.63
2023-01-18T04:15:24.994Z,9.07
2023-01-18T04:18:27.271Z,9.57
2023-01-18T04:21:29.136Z,10.30
2023-01-18T04:24:31.011Z,9.13
2023-01-18T04:27:32.926Z,10.05
2023-01-18T04:30:35.010Z,7.65
2023-01-18T04:33:36.958Z,9.93
2023-01-18T04:36:39.021Z,7.82
2023-01-18T04:39:40.905Z,11.23
2023-01-18T04:42:51.144Z,10.02
2023-01-18T04:45:56.324Z,10.05
2023-01-18T04:48:58.284Z,9.15
2023-01-18T04:52:00.134Z,8.82
2023-01-18T04:55:02.029Z,10.50
2023-01-18T04:58:03.958Z,11.18
2023-01-18T05:01:09.188Z,10.52
2023-01-18T05:04:11.264Z,7.53
2023-01-18T05:07:13.259Z,9.38
2023-01-18T05:10:15.310Z,8.40
2023-01-18T05:13:17.235Z,10.02
2023-01-18T05:16:22.039Z,9.68
2023-01-18T05:19:24.000Z,9.65
2023-01-18T05:22:28.447Z,9.93
2023-01-18T05:25:30.321Z,8.23
2023-01-18T05:28:32.136Z,7.40
2023-01-18T05:31:34.081Z,10.77
2023-01-18T05:34:35.944Z,17.92
2023-01-18T05:37:41.348Z,11.40
2023-01-18T05:40:44.856Z,7.60
2023-01-18T05:43:46.817Z,7.93
2023-01-18T05:46:48.787Z,10.15
2023-01-18T05:49:50.773Z,9.70
2023-01-18T05:52:52.759Z,7.97
2023-01-18T05:55:59.600Z,7.25
2023-01-18T05:59:01.612Z,9.15
2023-01-18T06:02:04.818Z,6.82
2023-01-18T06:08:08.983Z,6.88
2023-01-18T06:11:11.397Z,6.45
2023-01-18T06:14:13.607Z,8.90
2023-01-18T06:17:15.867Z,8.07
2023-01-18T06:20:17.986Z,11.88
2023-01-18T06:23:20.373Z,8.48
2023-01-18T06:26:22.286Z,9.00
2023-01-18T06:29:24.349Z,10.40
2023-01-18T06:32:26.329Z,8.52
2023-01-18T06:35:28.462Z,7.05
2023-01-18T06:38:30.563Z,8.40
2023-01-18T06:41:32.724Z,7.75
2023-01-18T06:44:34.791Z,7.60
2023-01-18T06:47:36.944Z,7.43
2023-01-18T06:50:38.911Z,8.90
2023-01-18T06:53:40.961Z,7.28
2023-01-18T06:56:43.175Z,8.60
2023-01-18T06:59:45.188Z,8.23
2023-01-18T07:02:47.383Z,8.88
2023-01-18T07:05:49.361Z,9.25
2023-01-18T07:08:51.358Z,9.00
2023-01-18T07:11:53.407Z,8.00
2023-01-18T07:14:55.572Z,10.02
2023-01-18T07:17:57.566Z,18.45
2023-01-18T07:20:59.512Z,7.32
2023-01-18T07:24:01.558Z,7.55
2023-01-18T07:27:06.087Z,7.53
2023-01-18T07:30:08.778Z,8.40
2023-01-18T07:33:10.750Z,8.23
2023-01-18T07:36:12.992Z,8.98
2023-01-18T07:39:15.196Z,9.88
2023-01-18T07:42:19.650Z,8.90
2023-01-18T07:45:21.614Z,10.00
2023-01-18T07:48:24.274Z,9.18
2023-01-18T07:51:26.424Z,10.38
2023-01-18T07:54:28.371Z,10.10
2023-01-18T07:57:30.417Z,12.25
2023-01-18T08:00:32.494Z,8.82
2023-01-18T08:03:34.625Z,8.35
2023-01-18T08:06:36.782Z,9.10
2023-01-18T08:09:38.802Z,13.23
2023-01-18T08:12:41.171Z,9.13
2023-01-18T08:15:43.213Z,10.00
2023-01-18T08:18:45.394Z,10.43
2023-01-18T08:21:47.902Z,9.80
2023-01-18T08:24:49.919Z,9.73
2023-01-18T08:27:51.915Z,8.95
2023-01-18T08:30:54.009Z,10.10
2023-01-18T08:33:56.074Z,8.93
2023-01-18T08:36:58.053Z,10.65
2023-01-18T08:40:00.063Z,9.35
2023-01-18T08:43:03.406Z,8.90
2023-01-18T08:46:05.634Z,6.93
2023-01-18T08:49:08.047Z,9.23
2023-01-18T08:52:10.045Z,8.80
2023-01-18T08:55:12.076Z,8.80
2023-01-18T08:58:14.224Z,10.13
2023-01-18T09:01:16.225Z,7.80
2023-01-18T09:04:18.528Z,7.68
2023-01-18T09:07:20.478Z,8.80
2023-01-18T09:10:23.327Z,6.95
2023-01-18T09:13:25.374Z,11.13
2023-01-18T09:16:28.014Z,9.90
2023-01-18T09:19:30.160Z,8.13
2023-01-18T09:22:32.206Z,7.88
2023-01-18T09:25:35.409Z,7.28
2023-01-18T09:28:37.347Z,6.30
2023-01-18T09:31:39.286Z,10.82
2023-01-18T09:34:41.334Z,7.50
2023-01-18T09:37:46.037Z,8.07
2023-01-18T09:40:47.961Z,8.95
2023-01-18T09:43:54.004Z,9.43
2023-01-18T09:47:01.942Z,8.68
2023-01-18T09:50:15.125Z,6.72
2023-01-18T09:53:29.488Z,6.68
2023-01-18T09:56:41.574Z,6.47
2023-01-18T09:59:55.837Z,6.63
2023-01-18T10:03:01.577Z,6.15
2023-01-18T10:06:08.982Z,7.03
2023-01-18T10:09:19.309Z,8.70
2023-01-18T10:12:46.091Z,8.18
2023-01-18T10:15:49.284Z,5.38
2023-01-18T10:22:19.609Z,7.60
2023-01-18T10:25:53.663Z,6.32
2023-01-18T10:29:16.842Z,5.85
2023-01-18T10:32:23.271Z,6.97
2023-01-18T10:35:42.762Z,6.15
2023-01-18T10:38:46.401Z,6.38
2023-01-18T10:41:48.307Z,6.03
2023-01-18T10:44:50.633Z,4.80
2023-01-18T10:47:55.388Z,4.80
2023-01-18T10:51:03.189Z,6.97
2023-01-18T10:54:26.811Z,18.98
2023-01-18T10:57:32.179Z,5.93
2023-01-18T11:00:36.404Z,4.28
2023-01-18T11:03:47.443Z,5.13
2023-01-18T11:06:53.109Z,5.50
2023-01-18T11:09:59.492Z,8.13
2023-01-18T11:13:01.666Z,7.20
2023-01-18T11:16:05.343Z,4.72
2023-01-18T11:19:17.940Z,6.10
2023-01-18T11:22:20.036Z,4.72
2023-01-18T11:25:22.523Z,4.97
2023-01-18T11:28:29.354Z,4.22
2023-01-18T11:31:43.752Z,5.30
2023-01-18T11:34:51.799Z,4.65
2023-01-18T11:38:02.570Z,3.65
2023-01-18T11:41:12.980Z,5.13
2023-01-18T11:44:29.688Z,4.72
2023-01-18T11:47:57.373Z,5.13
2023-01-18T12:03:30.602Z,3.53
2023-01-18T12:07:11.593Z,4.45
2023-01-18T12:10:21.643Z,5.20
2023-01-18T12:13:41.644Z,5.32
2023-01-18T12:17:11.095Z,4.28
2023-01-18T12:20:40.726Z,5.53
2023-01-18T12:23:52.041Z,5.95
2023-01-18T12:27:03.254Z,4.00
2023-01-18T12:30:23.494Z,4.50
2023-01-18T12:33:43.453Z,5.40
2023-01-18T12:36:48.877Z,17.25
2023-01-18T12:40:03.402Z,7.68
2023-01-18T12:43:08.332Z,3.75
2023-01-18T12:46:31.560Z,4.43
2023-01-18T12:49:40.258Z,5.88
2023-01-18T12:53:00.827Z,3.67
2023-01-18T12:56:13.125Z,4.15
2023-01-18T12:59:26.026Z,3.42
2023-01-18T13:02:33.399Z,4.85
2023-01-18T13:05:54.550Z,4.45
2023-01-18T13:12:16.272Z,3.85
2023-01-18T13:15:47.675Z,5.72
2023-01-18T13:19:05.667Z,4.85
2023-01-18T13:22:48.820Z,4.05
2023-01-18T13:26:33.338Z,4.28
2023-01-18T13:32:45.860Z,4.05
2023-01-18T13:36:09.710Z,3.65
2023-01-18T13:39:22.034Z,3.72
2023-01-18T13:42:36.178Z,3.50
2023-01-18T13:46:12.188Z,5.40
2023-01-18T13:49:39.010Z,4.63
2023-01-18T13:52:41.019Z,3.20
2023-01-18T13:55:56.814Z,5.53
2023-01-18T13:59:21.211Z,4.60
2023-01-18T14:02:40.197Z,4.82
2023-01-18T14:05:47.289Z,4.78
2023-01-18T14:09:15.663Z,4.10
2023-01-18T14:12:54.141Z,5.60
2023-01-18T14:16:06.630Z,5.53
2023-01-18T14:19:20.174Z,4.35
2023-01-18T14:23:05.146Z,4.35
2023-01-18T14:26:24.144Z,5.20
2023-01-18T14:30:04.589Z,5.80
2023-01-18T14:38:26.993Z,7.95
2023-01-18T14:41:51.887Z,4.35
2023-01-18T14:44:58.819Z,4.30
2023-01-18T14:48:21.609Z,2.97
2023-01-18T14:51:29.902Z,5.72
2023-01-18T14:54:33.514Z,3.50
2023-01-18T14:57:53.720Z,7.07
2023-01-18T15:01:00.727Z,3.53
2023-01-18T15:04:21.163Z,5.15
2023-01-18T15:07:31.735Z,7.78
2023-01-18T15:10:36.953Z,5.15
2023-01-18T15:13:54.307Z,6.72
2023-01-18T15:16:58.569Z,4.72
2023-01-18T15:20:06.677Z,6.25
2023-01-18T15:23:08.549Z,8.10
2023-01-18T15:26:10.504Z,5.60
2023-01-18T15:29:26.238Z,5.28
2023-01-18T15:32:31.904Z,7.18
2023-01-18T15:35:34.066Z,8.30
2023-01-18T15:38:39.049Z,7.40
2023-01-18T15:41:43.438Z,7.65
2023-01-18T15:44:52.234Z,6.53
2023-01-18T15:47:56.283Z,7.57
2023-01-18T15:51:06.553Z,8.00
2023-01-18T15:54:10.129Z,7.65
2023-01-18T15:57:17.613Z,5.88
2023-01-18T16:03:53.259Z,7.90
2023-01-18T16:06:55.256Z,6.43
2023-01-18T16:10:09.515Z,7.88
2023-01-18T16:13:26.615Z,7.53
2023-01-18T16:16:29.775Z,8.18
2023-01-18T16:19:36.151Z,7.05
2023-01-18T16:22:38.166Z,8.00
2023-01-18T16:25:40.121Z,11.05
2023-01-18T16:28:47.046Z,7.47
2023-01-18T16:32:15.151Z,7.40
2023-01-18T16:35:24.234Z,6.90
2023-01-18T16:41:37.751Z,8.07
2023-01-18T16:44:46.539Z,10.15
2023-01-18T16:47:50.924Z,10.13
2023-01-18T16:50:56.958Z,9.38
2023-01-18T16:54:02.116Z,8.85
2023-01-18T16:57:14.983Z,10.60
2023-01-18T17:00:21.528Z,11.77
2023-01-18T17:03:29.499Z,10.95
2023-01-18T17:06:31.419Z,8.65
2023-01-18T17:09:43.758Z,8.55
2023-01-18T17:12:49.420Z,9.55
2023-01-18T17:15:53.357Z,11.65
2023-01-18T17:18:55.370Z,11.60
2023-01-18T17:21:59.668Z,11.65
2023-01-18T17:25:01.747Z,11.27
2023-01-18T17:28:04.346Z,11.95
2023-01-18T17:31:06.535Z,12.45
2023-01-18T17:34:11.449Z,12.80
2023-01-18T17:37:13.466Z,12.82
2023-01-18T17:40:23.568Z,12.70
2023-01-18T17:43:34.047Z,14.30
2023-01-18T17:46:36.763Z,14.45
2023-01-18T17:49:38.805Z,11.93
2023-01-18T17:52:41.125Z,18.83
2023-01-18T17:55:43.344Z,13.23
2023-01-18T17:58:47.109Z,12.75
2023-01-18T18:01:49.394Z,9.77
2023-01-18T18:04:52.610Z,11.52
2023-01-18T18:07:54.668Z,12.52
2023-01-18T18:10:57.653Z,11.95
2023-01-18T18:14:00.794Z,22.65
2023-01-18T18:17:05.649Z,12.35
2023-01-18T18:20:09.670Z,15.35
2023-01-18T18:26:18.762Z,11.48
2023-01-18T18:29:20.950Z,13.15
2023-01-18T18:32:23.105Z,14.88
2023-01-18T18:35:26.563Z,18.58
2023-01-18T18:38:28.832Z,16.67
2023-01-18T18:41:31.276Z,14.38
2023-01-18T18:44:36.429Z,14.45
2023-01-18T18:47:39.047Z,21.13
2023-01-18T18:50:41.311Z,16.00
2023-01-18T18:53:43.698Z,13.00
2023-01-18T18:56:45.983Z,13.65
2023-01-18T18:59:48.917Z,19.20
2023-01-18T19:02:51.365Z,12.82
2023-01-18T19:05:54.251Z,13.32
2023-01-18T19:08:56.483Z,14.52
2023-01-18T19:11:58.646Z,17.08
2023-01-18T19:18:03.818Z,19.30
2023-01-18T19:21:06.242Z,15.70
2023-01-18T19:24:08.703Z,13.35
2023-01-18T19:27:10.850Z,13.40
2023-01-18T19:30:13.775Z,14.23
2023-01-18T19:33:15.887Z,16.42
2023-01-18T19:36:18.284Z,15.40
2023-01-18T19:39:22.629Z,15.95
2023-01-18T19:42:31.316Z,18.67
2023-01-18T19:45:33.613Z,16.15
2023-01-18T19:48:36.304Z,15.55
2023-01-18T19:51:38.382Z,12.00
2023-01-18T19:54:40.635Z,11.90
2023-01-18T20:00:49.921Z,13.40
2023-01-18T20:03:52.032Z,15.15
2023-01-18T20:06:53.963Z,16.30
2023-01-18T20:09:55.970Z,15.20
2023-01-18T20:12:59.056Z,15.68
2023-01-18T20:16:01.292Z,13.98
2023-01-18T20:19:03.775Z,17.40
2023-01-18T20:22:05.854Z,13.52
2023-01-18T20:25:08.234Z,18.15
2023-01-18T20:28:10.319Z,17.55
2023-01-18T20:31:12.599Z,14.98
2023-01-18T20:37:21.927Z,16.95
2023-01-18T20:40:23.907Z,15.15
2023-01-18T20:43:25.963Z,15.35
2023-01-18T20:46:28.047Z,14.93
2023-01-18T20:49:37.741Z,15.20
2023-01-18T20:52:40.553Z,15.02
2023-01-18T20:55:42.548Z,14.07
2023-01-18T20:58:44.638Z,14.07
2023-01-18T21:01:46.735Z,15.43
2023-01-18T21:04:49.015Z,12.70
2023-01-18T21:07:51.054Z,16.85
2023-01-18T21:10:53.033Z,13.82
2023-01-18T21:13:56.398Z,17.58
2023-01-18T21:16:58.829Z,16.73
2023-01-18T21:20:00.884Z,16.02
2023-01-18T21:23:02.935Z,16.38
2023-01-18T21:26:07.613Z,16.92
2023-01-18T21:29:09.886Z,17.70
2023-01-18T21:32:12.173Z,20.92
2023-01-18T21:35:15.313Z,18.23
2023-01-18T21:38:17.798Z,18.38
2023-01-18T21:41:19.961Z,19.30
2023-01-18T21:44:22.034Z,18.20
2023-01-18T21:47:25.377Z,17.17
2023-01-18T21:50:27.451Z,16.42
2023-01-18T21:53:29.581Z,17.98
2023-01-18T21:56:31.745Z,17.42
2023-01-18T21:59:35.092Z,16.13
2023-01-18T22:05:41.086Z,15.38
2023-01-18T22:08:45.740Z,17.45
2023-01-18T22:11:47.863Z,15.45
2023-01-18T22:14:50.280Z,15.48
2023-01-18T22:17:52.748Z,17.45
2023-01-18T22:20:55.914Z,17.70
2023-01-18T22:23:58.070Z,17.63
2023-01-18T22:27:00.149Z,15.93
2023-01-18T22:30:02.457Z,17.63
2023-01-18T22:33:04.673Z,15.30
2023-01-18T22:36:07.139Z,14.82
2023-01-18T22:39:10.976Z,16.17
2023-01-18T22:42:13.999Z,15.57
2023-01-18T22:45:16.264Z,16.92
2023-01-18T22:48:18.406Z,14.70
2023-01-18T22:51:23.247Z,15.20
2023-01-18T22:54:25.386Z,14.50
2023-01-18T22:57:27.725Z,18.65
2023-01-18T23:00:29.844Z,16.13
2023-01-18T23:03:32.023Z,15.55
2023-01-18T23:06:34.133Z,16.23
2023-01-18T23:09:36.282Z,15.43
2023-01-18T23:12:38.400Z,14.65
2023-01-18T23:15:44.580Z,17.27
2023-01-18T23:18:46.694Z,15.73
2023-01-18T23:21:51.760Z,14.73
2023-01-18T23:24:53.966Z,14.70
2023-01-18T23:27:56.139Z,14.05
2023-01-18T23:30:58.231Z,15.15
2023-01-18T23:34:00.564Z,16.35
2023-01-18T23:37:02.680Z,13.18
2023-01-18T23:40:05.441Z,14.55
2023-01-18T23:43:07.508Z,19.23
2023-01-18T23:46:09.728Z,16.15
2023-01-18T23:49:11.873Z,15.68
2023-01-18T23:52:14.149Z,16.42
2023-01-18T23:55:16.364Z,14.30
2023-01-18T23:58:18.765Z,13.52
